createdAt,value
2019-02-20T00:01:33.675Z,42.80
2019-02-20T00:04:01.160Z,52.77
2019-02-20T00:06:28.666Z,54.00
2019-02-20T00:08:56.187Z,60.60
2019-02-20T00:11:23.714Z,55.13
2019-02-20T00:13:51.226Z,49.20
2019-02-20T00:16:18.784Z,52.77
2019-02-20T00:18:46.311Z,49.73
2019-02-20T00:21:13.784Z,49.37
2019-02-20T00:23:41.289Z,54.33
2019-02-20T00:26:08.842Z,54.20
2019-02-20T00:28:36.367Z,53.97
2019-02-20T00:31:03.889Z,58.77
2019-02-20T00:33:31.408Z,58.00
2019-02-20T00:35:58.913Z,56.33
2019-02-20T00:38:26.463Z,61.70
2019-02-20T00:40:54.011Z,69.40
2019-02-20T00:43:21.553Z,66.27
2019-02-20T00:46:06.828Z,70.27
2019-02-20T00:48:53.846Z,73.37
2019-02-20T00:51:43.555Z,68.17
2019-02-20T00:54:11.093Z,65.47
2019-02-20T00:56:38.655Z,65.90
2019-02-20T00:59:06.144Z,62.47
2019-02-20T01:01:33.689Z,62.70
2019-02-20T01:04:01.194Z,71.07
2019-02-20T01:06:29.106Z,70.97
2019-02-20T01:08:56.863Z,72.33
2019-02-20T01:11:24.833Z,65.60
2019-02-20T01:13:52.334Z,71.23
2019-02-20T01:16:19.854Z,73.77
2019-02-20T01:18:47.404Z,65.83
2019-02-20T01:21:14.891Z,60.40
2019-02-20T01:23:42.409Z,66.23
2019-02-20T01:26:09.892Z,58.00
2019-02-20T01:28:37.452Z,68.30
2019-02-20T01:31:04.996Z,75.10
2019-02-20T01:33:32.538Z,83.60
2019-02-20T01:36:00.058Z,78.70
2019-02-20T01:38:27.607Z,76.60
2019-02-20T01:40:55.103Z,78.70
2019-02-20T01:43:22.650Z,73.20
2019-02-20T01:45:50.196Z,83.67
2019-02-20T01:48:17.742Z,82.27
2019-02-20T01:50:45.246Z,82.23
2019-02-20T01:53:12.767Z,83.10
2019-02-20T01:55:40.304Z,79.57
2019-02-20T01:58:07.828Z,71.77
2019-02-20T02:00:35.371Z,76.23
2019-02-20T02:03:02.864Z,67.37
2019-02-20T02:05:30.395Z,62.07
2019-02-20T02:07:57.911Z,69.73
2019-02-20T02:10:25.480Z,68.60
2019-02-20T02:12:52.974Z,82.17
2019-02-20T02:15:20.889Z,77.37
2019-02-20T02:17:48.506Z,78.40
2019-02-20T02:20:16.036Z,72.10
2019-02-20T02:22:43.559Z,73.07
2019-02-20T02:25:11.093Z,78.23
2019-02-20T02:27:38.577Z,75.13
2019-02-20T02:30:07.263Z,68.00
2019-02-20T02:32:34.766Z,71.23
2019-02-20T02:35:02.333Z,70.60
2019-02-20T02:37:29.877Z,72.73
2019-02-20T02:39:57.445Z,78.23
2019-02-20T02:42:25.021Z,73.87
2019-02-20T02:44:52.571Z,85.67
2019-02-20T02:47:20.098Z,84.67
2019-02-20T02:49:47.665Z,82.37
2019-02-20T02:52:15.260Z,84.57
2019-02-20T02:54:42.841Z,92.50
2019-02-20T02:57:10.462Z,87.40
2019-02-20T02:59:37.986Z,78.30
2019-02-20T03:02:05.501Z,67.37
2019-02-20T03:04:32.974Z,54.30
2019-02-20T03:07:00.505Z,57.87
2019-02-20T03:09:28.019Z,53.80
2019-02-20T03:11:55.548Z,53.73
2019-02-20T03:14:23.062Z,56.47
2019-02-20T03:16:50.674Z,58.63
2019-02-20T03:19:18.170Z,52.83
2019-02-20T03:21:45.688Z,57.27
2019-02-20T03:24:13.167Z,57.13
2019-02-20T03:26:40.693Z,56.33
2019-02-20T03:29:08.186Z,58.10
2019-02-20T03:31:35.750Z,54.53
2019-02-20T03:34:03.309Z,55.37
2019-02-20T03:36:30.896Z,63.60
2019-02-20T03:38:58.368Z,68.87
2019-02-20T03:41:25.901Z,109.37
2019-02-20T03:43:53.391Z,85.53
2019-02-20T03:46:20.925Z,56.33
2019-02-20T03:48:48.438Z,87.03
2019-02-20T03:51:15.987Z,70.87
2019-02-20T03:53:51.186Z,54.27
2019-02-20T03:56:12.773Z,58.10
2019-02-20T03:58:40.288Z,61.13
2019-02-20T04:01:20.027Z,60.57
2019-02-20T04:03:47.668Z,63.73
2019-02-20T04:06:15.140Z,65.03
2019-02-20T04:08:42.659Z,65.87
2019-02-20T04:11:10.126Z,63.07
2019-02-20T04:13:37.653Z,61.47
2019-02-20T04:16:05.179Z,55.17
2019-02-20T04:18:32.688Z,61.40
2019-02-20T04:21:00.171Z,49.07
2019-02-20T04:23:27.741Z,51.23
2019-02-20T04:25:55.213Z,55.80
2019-02-20T04:28:22.739Z,52.40
2019-02-20T04:30:50.235Z,71.27
2019-02-20T04:33:17.765Z,67.90
2019-02-20T04:35:45.600Z,83.20
2019-02-20T04:38:13.145Z,63.00
2019-02-20T04:40:40.662Z,65.30
2019-02-20T04:43:08.170Z,70.20
2019-02-20T04:45:35.669Z,68.07
2019-02-20T04:48:03.179Z,64.87
2019-02-20T04:50:30.659Z,56.40
2019-02-20T04:52:58.219Z,51.20
2019-02-20T04:55:25.714Z,57.60
2019-02-20T04:58:18.388Z,54.10
2019-02-20T05:00:45.875Z,57.53
2019-02-20T05:03:13.393Z,57.97
2019-02-20T05:05:40.863Z,64.50
2019-02-20T05:08:08.380Z,68.07
2019-02-20T05:10:35.926Z,59.03
2019-02-20T05:13:03.407Z,54.33
2019-02-20T05:15:30.937Z,50.50
2019-02-20T05:18:17.893Z,52.77
2019-02-20T05:20:45.389Z,56.37
2019-02-20T05:23:12.869Z,60.53
2019-02-20T05:25:40.415Z,62.40
2019-02-20T05:28:07.898Z,62.47
2019-02-20T05:30:35.914Z,60.20
2019-02-20T05:33:03.402Z,56.77
2019-02-20T05:35:30.896Z,61.47
2019-02-20T05:37:58.433Z,55.63
2019-02-20T05:40:25.919Z,62.00
2019-02-20T05:42:53.454Z,57.63
2019-02-20T05:45:20.942Z,67.80
2019-02-20T05:47:48.862Z,67.83
2019-02-20T05:50:16.419Z,76.00
2019-02-20T05:52:43.919Z,69.73
2019-02-20T05:55:11.501Z,64.63
2019-02-20T05:57:38.975Z,62.53
2019-02-20T06:00:07.524Z,67.27
2019-02-20T06:02:34.983Z,64.10
2019-02-20T06:05:02.512Z,78.83
2019-02-20T06:07:30.001Z,64.53
2019-02-20T06:09:57.562Z,58.23
2019-02-20T06:12:24.997Z,56.93
2019-02-20T06:14:52.458Z,50.13
2019-02-20T06:17:19.891Z,51.43
2019-02-20T06:19:47.371Z,54.80
2019-02-20T06:22:14.793Z,57.60
2019-02-20T06:24:44.304Z,56.67
2019-02-20T06:27:11.581Z,58.67
2019-02-20T06:29:39.028Z,55.73
2019-02-20T06:32:06.558Z,54.70
2019-02-20T06:34:34.006Z,58.83
2019-02-20T06:37:01.459Z,59.67
2019-02-20T06:39:28.920Z,64.07
2019-02-20T06:41:56.455Z,64.20
2019-02-20T06:44:23.922Z,69.37
2019-02-20T06:46:51.374Z,68.17
2019-02-20T06:49:18.800Z,69.63
2019-02-20T06:51:46.390Z,64.53
2019-02-20T06:54:13.855Z,58.43
2019-02-20T06:56:41.338Z,66.17
2019-02-20T06:59:08.788Z,69.43
2019-02-20T07:01:36.306Z,61.13
2019-02-20T07:04:03.731Z,69.07
2019-02-20T07:07:11.951Z,62.03
2019-02-20T07:10:23.010Z,64.27
2019-02-20T07:13:34.199Z,63.33
2019-02-20T07:16:33.697Z,56.93
2019-02-20T07:19:09.700Z,70.53
2019-02-20T07:22:26.767Z,59.83
2019-02-20T07:25:35.015Z,69.30
2019-02-20T07:28:49.631Z,79.53
2019-02-20T07:31:17.086Z,76.60
2019-02-20T07:33:44.558Z,74.77
2019-02-20T07:36:12.010Z,78.20
2019-02-20T07:38:39.503Z,81.77
2019-02-20T07:41:06.943Z,75.20
2019-02-20T07:43:34.395Z,69.37
2019-02-20T07:46:01.840Z,76.73
2019-02-20T07:48:29.308Z,78.30
2019-02-20T07:50:56.753Z,74.03
2019-02-20T07:53:24.223Z,79.73
2019-02-20T07:55:51.694Z,66.07
2019-02-20T07:58:19.147Z,70.17
2019-02-20T08:00:46.657Z,62.60
2019-02-20T08:03:14.098Z,67.17
2019-02-20T08:05:41.522Z,70.97
2019-02-20T08:08:08.984Z,63.17
2019-02-20T08:10:36.416Z,64.77
2019-02-20T08:13:03.913Z,66.77
2019-02-20T08:15:31.358Z,67.03
2019-02-20T08:17:59.689Z,63.70
2019-02-20T08:20:27.207Z,59.97
2019-02-20T08:22:54.639Z,60.27
2019-02-20T08:25:23.048Z,56.23
2019-02-20T08:27:50.730Z,52.90
2019-02-20T08:30:18.193Z,50.63
2019-02-20T08:32:45.643Z,53.00
2019-02-20T08:35:13.130Z,57.70
2019-02-20T08:37:40.574Z,56.10
2019-02-20T08:40:10.488Z,55.60
2019-02-20T08:42:37.912Z,50.40
2019-02-20T08:45:06.113Z,53.93
2019-02-20T08:47:33.556Z,51.43
2019-02-20T08:50:01.050Z,55.80
2019-02-20T08:52:28.487Z,46.17
2019-02-20T08:54:55.951Z,51.47
2019-02-20T08:57:23.397Z,57.50
2019-02-20T08:59:51.803Z,47.50
2019-02-20T09:02:19.243Z,50.50
2019-02-20T09:04:46.702Z,46.43
2019-02-20T09:07:14.186Z,48.73
2019-02-20T09:09:41.652Z,47.27
2019-02-20T09:12:09.106Z,49.03
2019-02-20T09:14:36.583Z,51.50
2019-02-20T09:17:04.047Z,50.43
2019-02-20T09:19:31.511Z,44.67
2019-02-20T09:21:59.307Z,48.87
2019-02-20T09:24:26.787Z,46.90
2019-02-20T09:26:54.248Z,49.97
2019-02-20T09:29:21.705Z,48.80
2019-02-20T09:31:49.171Z,52.70
2019-02-20T09:34:16.644Z,43.13
2019-02-20T09:36:44.099Z,45.33
2019-02-20T09:39:31.505Z,45.10
2019-02-20T09:41:59.005Z,46.17
2019-02-20T09:44:26.692Z,47.10
2019-02-20T09:46:54.182Z,47.57
2019-02-20T09:49:21.633Z,47.13
2019-02-20T09:51:49.099Z,51.20
2019-02-20T09:54:16.564Z,49.73
2019-02-20T09:56:44.045Z,47.80
2019-02-20T09:59:11.479Z,48.83
2019-02-20T10:01:39.257Z,45.20
2019-02-20T10:04:06.728Z,48.30
2019-02-20T10:06:34.216Z,47.53
2019-02-20T10:09:01.639Z,50.77
2019-02-20T10:11:29.136Z,47.83
2019-02-20T10:13:56.575Z,45.20
2019-02-20T10:16:24.049Z,44.40
2019-02-20T10:18:51.483Z,43.87
2019-02-20T10:21:18.963Z,44.63
2019-02-20T10:23:46.388Z,50.90
2019-02-20T10:26:13.881Z,43.60
2019-02-20T10:28:41.339Z,42.27
2019-02-20T10:31:08.838Z,43.65
2019-02-20T10:33:36.314Z,42.03
2019-02-20T10:36:03.767Z,42.58
2019-02-20T10:38:31.240Z,39.15
2019-02-20T10:40:58.675Z,41.37
2019-02-20T10:43:26.170Z,44.60
2019-02-20T10:45:53.619Z,40.73
2019-02-20T10:48:21.440Z,43.25
2019-02-20T10:50:48.884Z,40.85
2019-02-20T10:53:16.369Z,42.83
2019-02-20T10:55:43.814Z,37.60
2019-02-20T10:58:11.282Z,37.53
2019-02-20T11:00:38.734Z,39.92
2019-02-20T11:03:06.202Z,31.35
2019-02-20T11:05:33.651Z,33.40
2019-02-20T11:08:01.131Z,39.20
2019-02-20T11:10:28.570Z,34.55
2019-02-20T11:12:56.050Z,33.78
2019-02-20T11:15:23.540Z,29.70
2019-02-20T11:17:50.970Z,24.07
2019-02-20T11:20:18.436Z,25.30
2019-02-20T11:22:45.892Z,28.73
2019-02-20T11:25:13.348Z,26.97
2019-02-20T11:27:40.948Z,29.60
2019-02-20T11:30:12.580Z,25.72
2019-02-20T11:32:40.037Z,24.52
2019-02-20T11:35:07.655Z,26.35
2019-02-20T11:37:35.129Z,24.70
2019-02-20T11:40:02.799Z,25.37
2019-02-20T11:42:30.250Z,31.17
2019-02-20T11:44:57.715Z,25.25
2019-02-20T11:47:25.156Z,27.98
2019-02-20T11:49:52.643Z,24.57
2019-02-20T11:52:20.075Z,25.00
2019-02-20T11:54:47.526Z,21.65
2019-02-20T11:57:15.000Z,22.27
2019-02-20T11:59:42.467Z,22.17
2019-02-20T12:02:09.907Z,22.50
2019-02-20T12:04:37.364Z,19.07
2019-02-20T12:07:04.789Z,26.82
2019-02-20T12:09:32.255Z,21.23
2019-02-20T12:11:59.693Z,17.30
2019-02-20T12:14:27.187Z,15.32
2019-02-20T12:16:54.615Z,13.85
2019-02-20T12:19:23.560Z,18.40
2019-02-20T12:21:51.088Z,20.88
2019-02-20T12:24:18.556Z,17.02
2019-02-20T12:26:45.987Z,17.07
2019-02-20T12:29:13.480Z,19.32
2019-02-20T12:31:41.365Z,15.75
2019-02-20T12:34:08.847Z,18.32
2019-02-20T12:36:36.299Z,15.28
2019-02-20T12:39:04.402Z,15.80
2019-02-20T12:41:31.876Z,13.32
2019-02-20T12:43:59.371Z,17.37
2019-02-20T12:46:26.852Z,15.55
2019-02-20T12:48:54.324Z,11.12
2019-02-20T12:51:21.835Z,12.90
2019-02-20T12:53:49.283Z,13.08
2019-02-20T12:56:16.748Z,13.65
2019-02-20T12:58:44.248Z,16.05
2019-02-20T13:01:11.753Z,15.90
2019-02-20T13:03:39.237Z,11.28
2019-02-20T13:06:06.749Z,11.68
2019-02-20T13:08:34.269Z,16.23
2019-02-20T13:11:01.786Z,13.48
2019-02-20T13:13:29.258Z,12.53
2019-02-20T13:15:56.777Z,10.72
2019-02-20T13:18:24.855Z,13.85
2019-02-20T13:20:52.363Z,12.13
2019-02-20T13:23:20.226Z,9.90
2019-02-20T13:25:47.708Z,16.80
2019-02-20T13:28:15.187Z,13.53
2019-02-20T13:30:42.673Z,11.22
2019-02-20T13:33:10.551Z,11.53
2019-02-20T13:35:38.038Z,8.65
2019-02-20T13:38:05.554Z,12.07
2019-02-20T13:40:33.046Z,13.55
2019-02-20T13:43:01.016Z,12.13
2019-02-20T13:45:28.506Z,13.58
2019-02-20T13:47:56.417Z,18.45
2019-02-20T13:50:24.593Z,15.63
2019-02-20T13:52:52.773Z,10.93
2019-02-20T13:55:21.005Z,14.78
2019-02-20T13:57:48.609Z,13.08
2019-02-20T14:00:16.116Z,13.20
2019-02-20T14:02:43.857Z,11.10
2019-02-20T14:05:11.315Z,10.93
2019-02-20T14:07:39.584Z,18.30
2019-02-20T14:10:08.723Z,12.10
2019-02-20T14:12:36.245Z,14.93
2019-02-20T14:15:04.255Z,15.03
2019-02-20T14:17:31.790Z,10.55
2019-02-20T14:19:59.316Z,12.88
2019-02-20T14:22:26.822Z,10.25
2019-02-20T14:24:54.539Z,13.75
2019-02-20T14:27:22.080Z,15.72
2019-02-20T14:29:49.599Z,11.83
2019-02-20T14:32:17.385Z,12.63
2019-02-20T14:34:45.528Z,15.75
2019-02-20T14:37:14.499Z,12.05
2019-02-20T14:39:42.024Z,15.05
2019-02-20T14:42:09.503Z,12.95
2019-02-20T14:44:37.273Z,11.08
2019-02-20T14:47:04.830Z,10.95
2019-02-20T14:49:32.338Z,13.10
2019-02-20T14:51:59.852Z,12.65
2019-02-20T14:54:27.403Z,17.42
2019-02-20T14:56:54.877Z,12.25
2019-02-20T14:59:22.669Z,11.03
2019-02-20T15:01:50.314Z,11.90
2019-02-20T15:04:17.845Z,15.10
2019-02-20T15:06:45.311Z,14.13
2019-02-20T15:09:13.255Z,12.10
2019-02-20T15:11:40.743Z,14.18
2019-02-20T15:14:08.245Z,13.45
2019-02-20T15:16:35.750Z,12.47
2019-02-20T15:19:03.647Z,21.55
2019-02-20T15:21:31.129Z,13.13
2019-02-20T15:23:58.609Z,13.58
2019-02-20T15:26:26.071Z,14.55
2019-02-20T15:28:54.812Z,13.83
2019-02-20T15:31:22.345Z,14.90
2019-02-20T15:33:49.838Z,12.40
2019-02-20T15:36:18.350Z,11.20
2019-02-20T15:38:45.869Z,16.45
2019-02-20T15:41:13.356Z,10.35
2019-02-20T15:43:40.845Z,10.28
2019-02-20T15:46:08.340Z,12.37
2019-02-20T15:48:36.016Z,16.20
2019-02-20T15:51:03.516Z,15.08
2019-02-20T15:53:31.014Z,18.70
2019-02-20T15:55:58.881Z,13.85
2019-02-20T15:58:27.305Z,15.05
2019-02-20T16:00:54.851Z,12.15
2019-02-20T16:03:22.311Z,15.08
2019-02-20T16:05:49.835Z,14.10
2019-02-20T16:08:17.292Z,11.08
2019-02-20T16:10:44.783Z,13.90
2019-02-20T16:13:12.241Z,10.35
2019-02-20T16:15:39.740Z,11.70
2019-02-20T16:18:07.202Z,8.48
2019-02-20T16:20:34.774Z,12.53
2019-02-20T16:23:02.643Z,14.65
2019-02-20T16:25:30.164Z,13.58
2019-02-20T16:27:57.636Z,16.15
2019-02-20T16:30:25.122Z,14.30
2019-02-20T16:32:53.025Z,12.43
2019-02-20T16:35:20.551Z,16.12
2019-02-20T16:37:48.041Z,17.40
2019-02-20T16:40:15.564Z,17.65
2019-02-20T16:42:43.065Z,21.80
2019-02-20T16:45:17.963Z,13.75
2019-02-20T16:47:45.405Z,20.55
2019-02-20T16:50:13.175Z,16.17
2019-02-20T16:53:00.069Z,17.07
2019-02-20T16:55:27.548Z,15.63
2019-02-20T16:57:57.049Z,15.85
2019-02-20T17:00:24.405Z,19.80
2019-02-20T17:02:52.156Z,18.15
2019-02-20T17:05:19.800Z,15.65
2019-02-20T17:07:47.243Z,21.87
2019-02-20T17:10:15.402Z,16.30
2019-02-20T17:12:42.911Z,17.47
2019-02-20T17:15:10.991Z,14.35
2019-02-20T17:17:38.467Z,17.52
2019-02-20T17:20:07.736Z,15.93
2019-02-20T17:22:35.220Z,15.05
2019-02-20T17:25:02.876Z,17.90
2019-02-20T17:27:30.621Z,23.47
2019-02-20T17:29:58.039Z,23.93
2019-02-20T17:32:25.605Z,17.60
2019-02-20T17:34:53.012Z,15.87
2019-02-20T17:37:20.799Z,14.80
2019-02-20T17:39:49.290Z,17.23
2019-02-20T17:42:17.072Z,19.02
2019-02-20T17:44:44.534Z,14.80
2019-02-20T17:47:12.410Z,18.80
2019-02-20T17:49:39.883Z,23.13
2019-02-20T17:52:07.333Z,25.10
2019-02-20T17:54:35.190Z,17.70
2019-02-20T17:57:02.679Z,19.50
2019-02-20T17:59:30.162Z,34.00
2019-02-20T18:01:58.487Z,28.57
2019-02-20T18:04:26.231Z,28.20
2019-02-20T18:06:54.140Z,35.60
2019-02-20T18:09:21.585Z,27.50
2019-02-20T18:11:49.075Z,19.33
2019-02-20T18:14:16.531Z,24.03
2019-02-20T18:16:44.018Z,20.37
2019-02-20T18:19:11.488Z,25.53
2019-02-20T18:21:38.943Z,29.30
2019-02-20T18:24:06.403Z,29.13
2019-02-20T18:26:33.869Z,26.07
2019-02-20T18:29:01.355Z,28.53
2019-02-20T18:31:28.822Z,31.07
2019-02-20T18:33:56.320Z,30.43
2019-02-20T18:36:23.801Z,27.83
2019-02-20T18:38:51.326Z,24.93
2019-02-20T18:41:18.775Z,33.13
2019-02-20T18:43:46.277Z,25.57
2019-02-20T18:46:13.724Z,35.87
2019-02-20T18:48:41.365Z,33.73
2019-02-20T18:51:08.861Z,31.07
2019-02-20T18:53:36.356Z,34.03
2019-02-20T18:56:03.828Z,33.13
2019-02-20T18:58:33.934Z,38.97
2019-02-20T19:01:00.557Z,38.37
2019-02-20T19:03:28.041Z,33.60
2019-02-20T19:05:55.541Z,37.87
2019-02-20T19:08:44.011Z,50.27
2019-02-20T19:11:27.207Z,35.07
2019-02-20T19:14:16.658Z,36.37
2019-02-20T19:17:29.008Z,35.63
2019-02-20T19:20:08.776Z,31.50
2019-02-20T19:23:10.656Z,30.23
2019-02-20T19:26:21.980Z,55.10
2019-02-20T19:29:26.163Z,41.53
2019-02-20T19:32:33.040Z,35.10
2019-02-20T19:35:45.880Z,34.53
2019-02-20T19:38:46.236Z,40.13
2019-02-20T19:42:08.075Z,35.73
2019-02-20T19:45:14.507Z,33.80
2019-02-20T19:47:52.701Z,34.60
2019-02-20T19:50:47.054Z,36.87
2019-02-20T19:53:25.489Z,32.17
2019-02-20T19:56:10.245Z,31.73
2019-02-20T19:59:13.299Z,37.07
2019-02-20T20:02:28.131Z,38.77
2019-02-20T20:05:33.811Z,46.77
2019-02-20T20:08:24.757Z,34.37
2019-02-20T20:11:44.664Z,31.87
2019-02-20T20:14:29.924Z,34.87
2019-02-20T20:18:00.621Z,30.17
2019-02-20T20:20:37.296Z,39.20
2019-02-20T20:24:10.131Z,36.53
2019-02-20T20:27:00.910Z,32.87
2019-02-20T20:30:07.096Z,33.57
2019-02-20T20:33:17.863Z,37.10
2019-02-20T20:35:57.542Z,34.27
2019-02-20T20:38:54.896Z,34.77
2019-02-20T20:42:18.767Z,33.30
2019-02-20T20:45:16.983Z,35.97
2019-02-20T20:48:11.202Z,35.13
2019-02-20T20:51:04.649Z,39.07
2019-02-20T20:53:52.391Z,34.53
2019-02-20T20:56:57.274Z,33.37
2019-02-20T20:59:50.813Z,36.63
2019-02-20T21:02:31.770Z,34.90
2019-02-20T21:05:46.177Z,35.87
2019-02-20T21:08:23.677Z,25.73
2019-02-20T21:11:15.087Z,26.03
2019-02-20T21:14:17.823Z,23.47
2019-02-20T21:17:42.710Z,25.53
2019-02-20T21:20:47.982Z,27.07
2019-02-20T21:24:01.926Z,27.27
2019-02-20T21:26:51.473Z,28.10
2019-02-20T21:29:50.436Z,28.23
2019-02-20T21:32:57.210Z,28.83
2019-02-20T21:36:08.477Z,28.00
2019-02-20T21:39:13.525Z,26.60
2019-02-20T21:42:34.660Z,30.40
2019-02-20T21:45:33.788Z,31.87
2019-02-20T21:48:22.979Z,27.97
2019-02-20T21:51:35.110Z,27.37
2019-02-20T21:54:59.605Z,24.70
2019-02-20T21:58:08.066Z,24.90
2019-02-20T22:01:08.755Z,28.70
2019-02-20T22:04:27.515Z,31.53
2019-02-20T22:07:37.095Z,28.63
2019-02-20T22:10:33.686Z,31.07
2019-02-20T22:13:54.302Z,30.87
2019-02-20T22:17:18.366Z,30.80
2019-02-20T22:20:27.162Z,28.93
2019-02-20T22:23:01.106Z,22.10
2019-02-20T22:25:46.635Z,25.40
2019-02-20T22:29:06.599Z,32.27
2019-02-20T22:32:00.520Z,24.23
2019-02-20T22:35:06.389Z,29.17
2019-02-20T22:38:14.905Z,21.33
2019-02-20T22:41:11.680Z,22.13
2019-02-20T22:44:26.809Z,31.37
2019-02-20T22:47:07.627Z,28.57
2019-02-20T22:50:05.159Z,25.63
2019-02-20T22:52:40.276Z,30.53
2019-02-20T22:55:57.707Z,27.70
2019-02-20T22:58:42.523Z,24.63
2019-02-20T23:01:30.746Z,32.93
2019-02-20T23:04:34.882Z,22.10
2019-02-20T23:07:29.963Z,23.23
2019-02-20T23:10:50.247Z,24.93
2019-02-20T23:13:46.878Z,29.23
2019-02-20T23:16:14.318Z,31.83
2019-02-20T23:18:41.752Z,27.70
2019-02-20T23:21:09.203Z,29.27
2019-02-20T23:23:36.931Z,27.67
2019-02-20T23:26:04.391Z,27.70
2019-02-20T23:28:31.849Z,32.20
2019-02-20T23:30:59.333Z,28.07
2019-02-20T23:33:26.789Z,28.10
2019-02-20T23:35:54.229Z,27.27
2019-02-20T23:38:21.713Z,30.00
2019-02-20T23:40:49.136Z,27.20
2019-02-20T23:43:16.601Z,31.67
2019-02-20T23:45:44.020Z,30.23
2019-02-20T23:48:11.503Z,38.43
2019-02-20T23:50:38.930Z,36.00
2019-02-20T23:53:06.377Z,37.07
2019-02-20T23:55:33.803Z,42.53
2019-02-20T23:58:01.267Z,38.10
